Aérodrome :
LOGIN :

S'inscrire | Disclaimer

   EN    FR    IT 

 










Légende :    VFR   VFR Marginal   IFR   IFR Intensif   IFR Très Intensif
Visi : 
Plafond : 
>= 8 km
>= 3000ft
5 à 8 km
1000 à 3000 ft
1500m à 5 km
500 à 1000 ft
800 à 1500m
200 à 500 ft
< 800m
< 200 ft
Symboles :   Orages  Brouillard  Fortes neiges  Fortes précipitations  Vent > 20 kt
SIGMETs :   Divers  Orages  Givrage  Turbulence  Onde Orograph.  Cendres Volcan.






- Altitude de l'aérodrome : 226 ft
- Code IATA : BEX


EGUB - RAF Benson

DERNIER METAR :
  • 211520Z 35008KT 9999 FEW022 BKN031 12/08 Q1020 TEMPO SCT022 RMK BLU TEMPO WHT

METARs EXPIRÉS :
  • 211450Z 35007KT 9999 FEW021 BKN028 12/08 Q1020 TEMPO SCT021 RMK BLU TEMPO WHT
  • 211420Z 34008KT 9999 -RA SCT021 OVC028 12/08 Q1020 TEMPO FEW021 RMK WHT TEMPO BLU
  • 211350Z 35008KT 9999 SCT022 BKN028 12/08 Q1020 TEMPO FEW022 RMK WHT TEMPO BLU
  • 211321Z 34011KT 9999 SCT020 BKN026 12/08 Q1020 TEMPO FEW020 RMK WHT TEMPO BLU
  • 211250Z 36011KT 9999 SCT020 BKN026 13/08 Q1020 TEMPO FEW020 RMK WHT TEMPO BLU

TAF TAF EGUB
Valide du 21 à 15h jusqu'au 22 à 09h UTC


211346Z 2115/2209 35010KT 9999 SCT020
TEMPO 2115/2118 FEW020 SCT026
BECMG 2118/2121 FEW020 SCT033
BECMG 2200/2203 5000 BR
PROB30 2201/2209 0600 FG VV///
ATIS : +44 1491-837766 (x7524)



MET'MAP, la Météo Aéronautique d'un coup d'oeil ! - Copyright ORBIFLY Décembre 2007 - Disclaimer

ORBIFLY MET'MAP TEAM :

Programmation & Développement : Alexandra Zaïnal
Conception & Développement : Baudouin d'Aumeries
Co-Programmation & Développement : Marc-Olivier Méhu
Soutien technique & logistique : Manuel Goepfert

Contact : metmap@orbifly.com




SOURCES & CREDITS :

   NOAA